Time;durP1;ratioP1;P1;durP2;ratioP2;P2;SDS_P1;SDS_P2;PMS_P1;PMS_P2;Temp;Humidity;BMP_temperature;BMP_pressure;BME280_temperature;BME280_humidity;BME280_pressure;Samples;Min_cycle;Max_cycle;Signal;HPM_P1;HPM_P2
2023/12/13 00:01:49;;;;;;;2.30;0.60;;;;;;;4.69;100.00;99627.44;5055034;28;20440;-68
2023/12/13 00:04:16;;;;;;;5.33;1.83;;;;;;;4.75;100.00;99619.06;5055249;28;20552;-68
2023/12/13 00:06:43;;;;;;;5.47;1.47;;;;;;;4.83;100.00;99609.59;5054621;28;20521;-68
2023/12/13 00:09:10;;;;;;;4.23;2.13;;;;;;;4.89;100.00;99621.84;5054858;28;20492;-68
2023/12/13 00:11:37;;;;;;;3.50;2.17;;;;;;;4.92;100.00;99612.44;5054869;28;20937;-68
2023/12/13 00:14:03;;;;;;;3.10;1.33;;;;;;;4.94;100.00;99599.50;5054751;28;20463;-68
2023/12/13 00:16:30;;;;;;;2.20;0.83;;;;;;;4.95;100.00;99603.78;5054057;28;20944;-68
2023/12/13 00:18:58;;;;;;;4.80;2.20;;;;;;;5.01;100.00;99597.28;5055219;28;20441;-68
2023/12/13 00:21:24;;;;;;;3.43;1.33;;;;;;;4.98;100.00;99595.16;5054775;28;20487;-68
2023/12/13 00:23:51;;;;;;;4.07;0.73;;;;;;;4.93;100.00;99605.97;5054538;28;20455;-68
2023/12/13 00:26:19;;;;;;;2.37;0.90;;;;;;;5.00;100.00;99603.72;5054279;28;20445;-68
2023/12/13 00:28:46;;;;;;;2.63;0.77;;;;;;;5.03;100.00;99597.78;5054613;28;20482;-68
2023/12/13 00:31:14;;;;;;;4.30;1.70;;;;;;;5.01;100.00;99594.59;5054245;28;20473;-68
2023/12/13 00:33:40;;;;;;;3.30;1.33;;;;;;;4.95;100.00;99588.47;5054554;28;20459;-68
2023/12/13 00:36:09;;;;;;;3.97;1.33;;;;;;;4.92;100.00;99581.03;5054355;28;20448;-68
2023/12/13 00:38:36;;;;;;;7.80;1.50;;;;;;;4.91;100.00;99582.09;5054370;28;20950;-68
2023/12/13 00:41:02;;;;;;;4.50;2.47;;;;;;;4.91;100.00;99575.94;5054293;28;20442;-68
2023/12/13 00:43:29;;;;;;;2.80;1.07;;;;;;;4.92;100.00;99589.06;5054116;28;20438;-68
2023/12/13 00:45:55;;;;;;;6.63;2.80;;;;;;;4.82;100.00;99583.81;5054253;28;20529;-68
2023/12/13 00:48:22;;;;;;;4.50;1.83;;;;;;;4.76;100.00;99580.41;5054425;28;20517;-68
2023/12/13 00:50:49;;;;;;;2.90;1.30;;;;;;;4.78;100.00;99575.56;5054115;28;20864;-68
2023/12/13 00:53:17;;;;;;;3.70;1.70;;;;;;;4.82;100.00;99575.78;5054394;28;20438;-68
2023/12/13 00:55:43;;;;;;;4.10;2.23;;;;;;;4.87;100.00;99572.22;5054053;28;20442;-67
2023/12/13 00:58:10;;;;;;;5.23;2.40;;;;;;;4.83;100.00;99571.22;5054024;28;20442;-68
2023/12/13 01:00:36;;;;;;;6.13;1.37;;;;;;;4.84;100.00;99572.81;5053964;28;20460;-68
2023/12/13 01:03:03;;;;;;;2.97;1.30;;;;;;;4.85;100.00;99580.56;5054154;28;20452;-68
2023/12/13 01:05:30;;;;;;;3.67;1.80;;;;;;;4.85;100.00;99575.22;5053512;28;20836;-68
2023/12/13 01:07:56;;;;;;;5.00;1.70;;;;;;;4.86;100.00;99570.63;5053839;28;20578;-69
2023/12/13 01:10:24;;;;;;;3.50;1.63;;;;;;;4.88;100.00;99571.97;5053708;28;20470;-69
2023/12/13 01:12:51;;;;;;;3.60;1.40;;;;;;;4.88;100.00;99571.16;5053812;28;20989;-69
2023/12/13 01:15:18;;;;;;;3.03;1.30;;;;;;;4.89;100.00;99567.38;5053603;28;20985;-69
2023/12/13 01:17:44;;;;;;;3.17;2.13;;;;;;;4.87;100.00;99577.59;5053794;28;20445;-69
2023/12/13 01:20:11;;;;;;;2.87;1.83;;;;;;;4.86;100.00;99571.44;5076379;22;20497;-69
2023/12/13 01:22:38;;;;;;;2.67;0.90;;;;;;;4.84;100.00;99565.56;5074276;28;20447;-69
2023/12/13 01:25:06;;;;;;;3.57;1.50;;;;;;;4.83;100.00;99555.13;5073150;28;21041;-69
2023/12/13 01:27:34;;;;;;;3.20;1.60;;;;;;;4.84;100.00;99562.88;5072530;28;21010;-69
2023/12/13 01:30:00;;;;;;;3.27;1.47;;;;;;;4.89;100.00;99556.66;5073939;28;20448;-69
2023/12/13 01:32:27;;;;;;;9.57;0.97;;;;;;;4.92;100.00;99553.41;5073493;28;20542;-68
2023/12/13 01:34:54;;;;;;;4.57;1.53;;;;;;;4.92;100.00;99550.72;5073606;28;20453;-66
2023/12/13 01:37:21;;;;;;;10.50;2.23;;;;;;;4.90;100.00;99545.63;5073719;28;20453;-65
2023/12/13 01:39:47;;;;;;;3.50;1.77;;;;;;;4.92;100.00;99537.31;5073400;28;20442;-65
2023/12/13 01:42:14;;;;;;;2.63;1.00;;;;;;;4.92;100.00;99540.00;5073720;28;20447;-65
2023/12/13 01:44:42;;;;;;;3.03;1.50;;;;;;;4.95;100.00;99539.38;5073348;28;20993;-67
2023/12/13 01:47:10;;;;;;;4.13;1.53;;;;;;;4.95;100.00;99534.03;5073668;28;20479;-67
2023/12/13 01:49:37;;;;;;;7.23;2.23;;;;;;;4.99;100.00;99532.34;5073589;28;20489;-67
2023/12/13 01:52:04;;;;;;;2.40;1.03;;;;;;;5.01;100.00;99533.69;5073109;28;20519;-67
2023/12/13 01:54:31;;;;;;;4.27;2.00;;;;;;;5.04;100.00;99533.06;5073219;28;20461;-67
2023/12/13 01:56:59;;;;;;;5.27;2.40;;;;;;;5.04;100.00;99530.38;5073900;28;20463;-68
2023/12/13 01:59:28;;;;;;;3.20;1.20;;;;;;;5.07;100.00;99526.34;5073939;28;20440;-68
2023/12/13 02:01:56;;;;;;;3.03;1.20;;;;;;;5.09;100.00;99520.69;5073237;28;20452;-67
2023/12/13 02:04:26;;;;;;;3.00;1.60;;;;;;;5.10;100.00;99523.09;5073529;28;20460;-67
2023/12/13 02:06:53;;;;;;;2.93;1.40;;;;;;;5.10;100.00;99527.66;5073711;28;20441;-65
2023/12/13 02:09:19;;;;;;;6.50;1.80;;;;;;;5.12;100.00;99526.25;5073346;28;20580;-65
2023/12/13 02:11:46;;;;;;;9.13;3.30;;;;;;;5.12;100.00;99522.78;5073209;28;20519;-65
2023/12/13 02:14:13;;;;;;;3.73;1.90;;;;;;;5.10;100.00;99522.28;5073033;28;20564;-65
2023/12/13 02:16:40;;;;;;;3.63;1.57;;;;;;;5.06;100.00;99522.06;5073137;28;20447;-65
2023/12/13 02:19:10;;;;;;;5.50;1.47;;;;;;;5.07;100.00;99515.59;5073400;28;20470;-65
2023/12/13 02:21:37;;;;;;;3.17;1.30;;;;;;;5.11;100.00;99505.09;5072880;28;20445;-65
2023/12/13 02:24:07;;;;;;;3.20;1.70;;;;;;;5.10;100.00;99498.13;5073239;28;20480;-65
2023/12/13 02:26:36;;;;;;;2.33;1.33;;;;;;;5.12;100.00;99493.25;5073069;28;20429;-65
2023/12/13 02:29:03;;;;;;;2.70;1.40;;;;;;;5.07;100.00;99496.81;5073146;28;20481;-65
2023/12/13 02:31:31;;;;;;;3.47;2.03;;;;;;;5.09;100.00;99483.94;5073410;28;20441;-65
2023/12/13 02:33:57;;;;;;;3.23;1.80;;;;;;;5.09;100.00;99499.19;5073077;28;20461;-65
2023/12/13 02:36:24;;;;;;;3.67;1.90;;;;;;;5.11;100.00;99491.69;5072891;28;20804;-65
2023/12/13 02:38:50;;;;;;;2.33;0.97;;;;;;;5.12;100.00;99483.31;5073430;28;20480;-65
2023/12/13 02:41:18;;;;;;;3.37;1.37;;;;;;;5.09;100.00;99481.25;5076968;28;20519;-65
2023/12/13 02:43:45;;;;;;;6.57;2.30;;;;;;;5.13;100.00;99476.84;5076719;28;20485;-65
2023/12/13 02:46:12;;;;;;;2.90;1.47;;;;;;;5.15;100.00;99472.00;5076497;28;20460;-65
2023/12/13 02:48:38;;;;;;;4.00;2.47;;;;;;;5.14;100.00;99459.69;5076353;28;21043;-65
2023/12/13 02:51:05;;;;;;;2.60;1.40;;;;;;;5.14;100.00;99464.25;5076346;28;20476;-65
2023/12/13 02:53:32;;;;;;;3.90;1.47;;;;;;;5.14;100.00;99458.91;5076258;28;20473;-65
2023/12/13 02:55:58;;;;;;;2.83;1.47;;;;;;;5.07;100.00;99461.94;5076669;28;20563;-65
2023/12/13 02:58:26;;;;;;;3.63;1.40;;;;;;;5.09;100.00;99450.91;5076590;28;20438;-65
2023/12/13 03:00:53;;;;;;;2.67;1.10;;;;;;;5.05;100.00;99456.06;5076097;28;20468;-64
2023/12/13 03:03:20;;;;;;;9.50;1.83;;;;;;;5.06;100.00;99449.59;5076096;28;20480;-64
2023/12/13 03:05:47;;;;;;;3.60;1.90;;;;;;;5.10;100.00;99453.31;5076375;28;20439;-64
2023/12/13 03:08:15;;;;;;;2.17;1.00;;;;;;;5.10;100.00;99452.50;5076339;28;20523;-64
2023/12/13 03:10:42;;;;;;;2.47;1.27;;;;;;;5.06;100.00;99452.28;5075758;28;20798;-65
2023/12/13 03:13:09;;;;;;;3.80;1.90;;;;;;;5.11;100.00;99454.09;5076145;28;20494;-65
2023/12/13 03:15:37;;;;;;;3.20;1.60;;;;;;;5.16;100.00;99457.50;5075921;28;20457;-64
2023/12/13 03:18:03;;;;;;;4.13;2.27;;;;;;;5.17;100.00;99456.41;5076149;28;20444;-64
2023/12/13 03:20:30;;;;;;;3.20;2.00;;;;;;;5.19;100.00;99451.56;5076206;28;20484;-65
2023/12/13 03:22:57;;;;;;;4.03;2.00;;;;;;;5.23;100.00;99441.81;5075714;28;20445;-65
2023/12/13 03:25:23;;;;;;;2.67;1.13;;;;;;;5.25;100.00;99455.72;5076059;28;20540;-65
2023/12/13 03:27:51;;;;;;;3.90;1.77;;;;;;;5.28;100.00;99451.69;5075550;28;20929;-65
2023/12/13 03:30:17;;;;;;;5.57;1.77;;;;;;;5.29;100.00;99437.94;5076296;28;20480;-65
2023/12/13 03:32:45;;;;;;;6.00;2.30;;;;;;;5.28;100.00;99439.03;5075626;28;20473;-65
2023/12/13 03:35:12;;;;;;;4.50;2.00;;;;;;;5.29;100.00;99437.94;5075517;28;20475;-65
2023/12/13 03:37:38;;;;;;;3.43;1.80;;;;;;;5.29;100.00;99432.59;5075225;28;20816;-65
2023/12/13 03:40:06;;;;;;;5.20;2.50;;;;;;;5.34;100.00;99426.31;5075881;28;20469;-65
2023/12/13 03:42:33;;;;;;;5.03;1.20;;;;;;;5.34;100.00;99431.69;5075186;28;20477;-65
2023/12/13 03:45:00;;;;;;;2.03;0.77;;;;;;;5.35;100.00;99422.53;5075299;28;20544;-65
2023/12/13 03:47:26;;;;;;;3.63;1.37;;;;;;;5.37;100.00;99424.97;5075374;28;20484;-65
2023/12/13 03:49:54;;;;;;;4.70;2.10;;;;;;;5.34;100.00;99429.00;5075019;28;20914;-65
2023/12/13 03:52:21;;;;;;;4.10;1.30;;;;;;;5.34;100.00;99417.47;5074476;28;20444;-65
2023/12/13 03:54:47;;;;;;;3.07;1.27;;;;;;;5.29;100.00;99421.84;5075502;28;20464;-65
2023/12/13 03:57:14;;;;;;;4.10;1.80;;;;;;;5.34;100.00;99425.53;5075099;28;20461;-65
2023/12/13 03:59:40;;;;;;;2.70;1.47;;;;;;;5.37;100.00;99419.59;5075138;28;20469;-67
2023/12/13 04:02:07;;;;;;;5.70;2.40;;;;;;;5.38;100.00;99427.34;5075058;28;20448;-67
2023/12/13 04:04:33;;;;;;;5.70;2.50;;;;;;;5.34;100.00;99428.22;5075049;28;20501;-67
2023/12/13 04:07:01;;;;;;;5.23;2.30;;;;;;;5.34;100.00;99425.53;5074949;28;20444;-68
2023/12/13 04:09:28;;;;;;;4.20;2.00;;;;;;;5.38;100.00;99434.59;5075121;28;20487;-66
2023/12/13 04:11:54;;;;;;;3.80;1.50;;;;;;;5.39;100.00;99430.81;5074797;28;20473;-68
2023/12/13 04:14:21;;;;;;;5.10;2.50;;;;;;;5.38;100.00;99429.22;5075021;28;20519;-68
2023/12/13 04:16:48;;;;;;;3.33;1.87;;;;;;;5.35;100.00;99422.53;5074674;28;20516;-68
2023/12/13 04:19:14;;;;;;;5.20;1.97;;;;;;;5.30;100.00;99426.13;5074500;28;20437;-68
2023/12/13 04:21:41;;;;;;;7.30;2.90;;;;;;;5.30;100.00;99426.13;5074440;28;20898;-68
2023/12/13 04:24:09;;;;;;;4.63;1.43;;;;;;;5.31;100.00;99419.69;5074498;28;20475;-68
2023/12/13 04:26:35;;;;;;;2.87;1.30;;;;;;;5.34;100.00;99415.59;5074284;28;20802;-68
2023/12/13 04:29:02;;;;;;;3.27;1.80;;;;;;;5.36;100.00;99404.53;5074454;28;20523;-68
2023/12/13 04:31:29;;;;;;;6.63;3.43;;;;;;;5.41;100.00;99407.97;5074138;28;20521;-68
2023/12/13 04:33:55;;;;;;;4.67;1.83;;;;;;;5.46;100.00;99412.44;5074029;28;20467;-68
2023/12/13 04:36:22;;;;;;;2.47;1.17;;;;;;;5.50;100.00;99406.19;5074679;28;20476;-67
2023/12/13 04:38:48;;;;;;;3.10;1.47;;;;;;;5.50;100.00;99392.75;5074339;28;20469;-65
2023/12/13 04:41:17;;;;;;;3.17;1.50;;;;;;;5.50;100.00;99390.06;5073950;28;20449;-65
2023/12/13 04:43:43;;;;;;;7.50;2.60;;;;;;;5.50;100.00;99384.69;5074234;28;20487;-65
2023/12/13 04:46:10;;;;;;;4.70;2.20;;;;;;;5.52;100.00;99384.38;5074124;28;20468;-65
2023/12/13 04:48:36;;;;;;;3.93;1.93;;;;;;;5.53;100.00;99385.97;5074073;28;20513;-65
2023/12/13 04:51:03;;;;;;;4.80;1.73;;;;;;;5.52;100.00;99379.03;5074112;28;20473;-65
2023/12/13 04:53:30;;;;;;;3.57;2.00;;;;;;;5.52;100.00;99377.13;5073918;28;20476;-65
2023/12/13 04:55:57;;;;;;;4.63;2.13;;;;;;;5.50;100.00;99381.22;5073993;28;20469;-65
2023/12/13 04:58:26;;;;;;;5.23;1.83;;;;;;;5.49;100.00;99374.22;5073937;28;20448;-65
2023/12/13 05:00:53;;;;;;;3.03;1.50;;;;;;;5.50;100.00;99378.53;5074276;28;20514;-65
2023/12/13 05:03:19;;;;;;;5.23;1.87;;;;;;;5.47;100.00;99371.06;5073562;28;20469;-64
2023/12/13 05:05:46;;;;;;;8.83;2.77;;;;;;;5.49;100.00;99371.53;5073806;28;20816;-64
2023/12/13 05:08:13;;;;;;;5.03;2.37;;;;;;;5.46;100.00;99358.72;5074546;28;20433;-64
2023/12/13 05:10:40;;;;;;;3.20;1.90;;;;;;;5.47;100.00;99354.94;5074073;28;20520;-64
2023/12/13 05:13:07;;;;;;;8.20;1.90;;;;;;;5.44;100.00;99358.22;5073739;28;20441;-64
2023/12/13 05:15:35;;;;;;;8.43;2.37;;;;;;;5.43;100.00;99353.94;5073668;28;20457;-64
2023/12/13 05:18:02;;;;;;;6.37;3.43;;;;;;;5.44;100.00;99363.59;5073733;28;20433;-64
2023/12/13 05:20:28;;;;;;;6.90;3.50;;;;;;;5.42;100.00;99355.84;5073468;28;20445;-64
2023/12/13 05:22:55;;;;;;;6.93;2.83;;;;;;;5.42;100.00;99365.78;5073288;28;20956;-64
2023/12/13 05:25:21;;;;;;;3.70;1.30;;;;;;;5.43;100.00;99359.31;5073492;28;20485;-64
2023/12/13 05:27:48;;;;;;;6.60;1.53;;;;;;;5.48;100.00;99359.22;5073578;28;20517;-64
2023/12/13 05:30:15;;;;;;;5.43;1.50;;;;;;;5.48;100.00;99361.91;5073813;28;20481;-64
2023/12/13 05:32:42;;;;;;;4.47;2.33;;;;;;;5.50;100.00;99365.09;5073185;28;20437;-64
2023/12/13 05:35:09;;;;;;;5.80;2.40;;;;;;;5.47;100.00;99360.31;5073428;28;20461;-64
2023/12/13 05:37:36;;;;;;;10.40;2.70;;;;;;;5.48;100.00;99361.91;5073440;28;20875;-64
2023/12/13 05:40:04;;;;;;;5.77;2.80;;;;;;;5.50;100.00;99359.72;5073291;28;20524;-64
2023/12/13 05:42:30;;;;;;;7.00;2.00;;;;;;;5.52;100.00;99366.38;5072938;28;20933;-64
2023/12/13 05:44:57;;;;;;;7.80;2.10;;;;;;;5.50;100.00;99365.09;5073267;28;20544;-64
2023/12/13 05:47:23;;;;;;;6.47;2.57;;;;;;;5.53;100.00;99368.00;5073487;28;20448;-65
2023/12/13 05:49:51;;;;;;;2.73;1.23;;;;;;;5.56;100.00;99369.28;5072857;28;20481;-64
2023/12/13 05:52:19;;;;;;;3.17;1.50;;;;;;;5.55;100.00;99375.75;5073082;28;20477;-64
2023/12/13 05:54:45;;;;;;;5.97;1.70;;;;;;;5.53;100.00;99370.69;5073025;28;20453;-63
2023/12/13 05:57:12;;;;;;;4.47;2.80;;;;;;;5.52;100.00;99369.06;5073427;28;20437;-63
2023/12/13 05:59:39;;;;;;;5.93;2.37;;;;;;;5.49;100.00;99361.63;5072703;28;20863;-63
2023/12/13 06:02:05;;;;;;;5.37;1.80;;;;;;;5.53;100.00;99365.31;5073099;28;20498;-63
2023/12/13 06:04:32;;;;;;;4.13;2.40;;;;;;;5.49;100.00;99358.94;5072632;28;20815;-63
2023/12/13 06:07:00;;;;;;;6.27;2.60;;;;;;;5.51;100.00;99364.00;5072974;28;20491;-63
2023/12/13 06:09:27;;;;;;;3.80;1.23;;;;;;;5.51;100.00;99364.78;5072954;28;20477;-63
2023/12/13 06:11:54;;;;;;;3.93;1.73;;;;;;;5.51;100.00;99367.47;5073509;28;20437;-63
2023/12/13 06:14:20;;;;;;;4.40;2.70;;;;;;;5.52;100.00;99365.59;5074357;28;20457;-63
2023/12/13 06:16:47;;;;;;;5.23;1.77;;;;;;;5.55;100.00;99371.16;5076692;28;21001;-63
2023/12/13 06:19:14;;;;;;;9.00;2.93;;;;;;;5.61;100.00;99365.69;5076901;28;20433;-63
2023/12/13 06:21:41;;;;;;;2.90;1.50;;;;;;;5.64;100.00;99365.09;5076895;28;20516;-63
2023/12/13 06:24:09;;;;;;;8.40;2.93;;;;;;;5.64;100.00;99347.09;5077161;28;20468;-63
2023/12/13 06:26:35;;;;;;;2.67;1.57;;;;;;;5.68;100.00;99345.41;5076836;28;20440;-63
2023/12/13 06:29:02;;;;;;;5.77;2.47;;;;;;;5.65;100.00;99342.53;5076701;28;20439;-63
2023/12/13 06:31:29;;;;;;;6.87;2.70;;;;;;;5.63;100.00;99342.84;5076758;28;20471;-63
2023/12/13 06:33:56;;;;;;;5.20;2.17;;;;;;;5.63;100.00;99350.88;5076535;28;20479;-64
2023/12/13 06:36:22;;;;;;;3.70;1.53;;;;;;;5.68;100.00;99350.00;5076954;28;20449;-64
2023/12/13 06:38:49;;;;;;;4.23;1.90;;;;;;;5.69;100.00;99363.13;5076311;28;20433;-64
2023/12/13 06:41:17;;;;;;;6.87;3.00;;;;;;;5.71;100.00;99354.75;5076967;28;20439;-64
2023/12/13 06:43:44;;;;;;;4.73;2.37;;;;;;;5.72;100.00;99362.53;5076555;28;20540;-64
2023/12/13 06:46:10;;;;;;;5.07;2.40;;;;;;;5.73;100.00;99374.84;5076134;28;20937;-64
2023/12/13 06:48:37;;;;;;;4.90;1.90;;;;;;;5.78;100.00;99366.69;5076410;28;20532;-65
2023/12/13 06:51:05;;;;;;;3.03;1.63;;;;;;;5.76;100.00;99368.09;5076936;28;20591;-65
2023/12/13 06:53:31;;;;;;;6.60;3.03;;;;;;;5.79;100.00;99362.09;5076632;28;20433;-65
2023/12/13 06:55:58;;;;;;;6.77;3.03;;;;;;;5.79;100.00;99368.28;5076598;28;20447;-65
2023/12/13 06:58:26;;;;;;;4.67;2.30;;;;;;;5.78;100.00;99369.38;5076902;28;20449;-66
2023/12/13 07:00:53;;;;;;;3.40;1.70;;;;;;;5.77;100.00;99364.31;5076266;28;20434;-65
2023/12/13 07:03:20;;;;;;;3.40;1.70;;;;;;;5.75;100.00;99367.28;5076070;28;20967;-66
2023/12/13 07:05:47;;;;;;;3.80;1.60;;;;;;;5.73;100.00;99366.78;5075955;28;20449;-68
2023/12/13 07:08:14;;;;;;;3.80;1.60;;;;;;;5.73;100.00;99366.00;5075989;28;20444;-64
2023/12/13 07:10:40;;;;;;;3.43;1.40;;;;;;;5.67;100.00;99357.25;5075955;28;20492;-65
2023/12/13 07:13:07;;;;;;;3.20;1.47;;;;;;;5.69;100.00;99365.78;5075825;28;20528;-65
2023/12/13 07:15:35;;;;;;;3.90;2.30;;;;;;;5.68;100.00;99361.53;5075961;28;20510;-66
2023/12/13 07:18:01;;;;;;;3.67;1.23;;;;;;;5.63;100.00;99361.63;5075524;28;20484;-67
2023/12/13 07:20:30;;;;;;;6.07;2.37;;;;;;;5.66;100.00;99369.06;5078899;22;20541;-69
2023/12/13 07:22:57;;;;;;;7.70;1.63;;;;;;;5.66;100.00;99371.75;5056091;28;20442;-69
2023/12/13 07:25:23;;;;;;;5.33;1.80;;;;;;;5.72;100.00;99373.28;5056128;28;20472;-70
2023/12/13 07:27:50;;;;;;;3.90;1.80;;;;;;;5.76;100.00;99376.97;5056059;28;20435;-69
2023/12/13 07:30:17;;;;;;;2.47;1.13;;;;;;;5.75;100.00;99377.22;5055880;28;20928;-69
2023/12/13 07:32:45;;;;;;;5.73;2.40;;;;;;;5.76;100.00;99376.16;5055773;28;20438;-69
2023/12/13 07:35:11;;;;;;;3.77;2.00;;;;;;;5.77;100.00;99370.47;5055692;28;20552;-69
2023/12/13 07:37:38;;;;;;;3.40;1.33;;;;;;;5.79;100.00;99375.53;5055330;28;20871;-68
2023/12/13 07:40:06;;;;;;;4.33;1.53;;;;;;;5.81;100.00;99376.06;5055583;28;20446;-68
2023/12/13 07:42:33;;;;;;;3.33;1.47;;;;;;;5.86;100.00;99378.63;5055235;28;20961;-68
2023/12/13 07:45:00;;;;;;;4.13;1.50;;;;;;;5.93;100.00;99379.06;5055752;28;20466;-68
2023/12/13 07:47:27;;;;;;;3.33;1.40;;;;;;;5.95;100.00;99381.44;5055890;28;20469;-66
2023/12/13 07:49:54;;;;;;;3.00;1.27;;;;;;;5.99;100.00;99375.19;5055264;28;20571;-67
2023/12/13 07:52:21;;;;;;;4.80;2.20;;;;;;;6.00;100.00;99375.97;5055025;28;20873;-66
2023/12/13 07:54:48;;;;;;;4.40;2.30;;;;;;;6.00;100.00;99376.75;5055218;28;20512;-67
2023/12/13 07:57:15;;;;;;;3.77;2.10;;;;;;;6.02;100.00;99377.28;5055465;28;20438;-68
2023/12/13 07:59:42;;;;;;;2.73;1.13;;;;;;;6.05;100.00;99373.16;5055698;28;20445;-67
2023/12/13 08:02:09;;;;;;;4.03;1.70;;;;;;;6.10;100.00;99372.28;5055488;28;20446;-67
2023/12/13 08:04:35;;;;;;;3.73;1.87;;;;;;;6.12;100.00;99380.84;5055499;28;20466;-68
2023/12/13 08:07:04;;;;;;;4.33;1.73;;;;;;;6.04;100.00;99375.06;5055571;28;20442;-68
2023/12/13 08:09:30;;;;;;;4.20;1.90;;;;;;;6.04;100.00;99375.06;5054800;28;20446;-68
2023/12/13 08:11:58;;;;;;;3.30;1.17;;;;;;;6.07;100.00;99379.84;5055153;28;20442;-68
2023/12/13 08:14:30;;;;;;;3.57;1.67;;;;;;;6.03;100.00;99370.78;5054923;28;20473;-68
2023/12/13 08:16:57;;;;;;;3.97;1.23;;;;;;;6.09;100.00;99379.53;5054860;28;20427;-68
2023/12/13 08:19:23;;;;;;;2.40;1.23;;;;;;;6.13;100.00;99380.53;5054804;28;20468;-67
2023/12/13 08:21:51;;;;;;;4.23;1.90;;;;;;;6.14;100.00;99368.69;5054781;28;20419;-67
2023/12/13 08:24:19;;;;;;;4.07;1.23;;;;;;;6.11;100.00;99374.69;5054556;28;20465;-67
2023/12/13 08:26:46;;;;;;;5.03;1.73;;;;;;;6.10;100.00;99378.44;5054347;28;20957;-68
2023/12/13 08:29:12;;;;;;;5.20;1.77;;;;;;;6.09;100.00;99382.22;5054577;28;20866;-68
2023/12/13 08:31:39;;;;;;;3.23;1.00;;;;;;;6.14;100.00;99381.31;5054521;28;20524;-67
2023/12/13 08:34:06;;;;;;;3.40;1.07;;;;;;;6.20;100.00;99382.81;5054895;28;20458;-67
2023/12/13 08:36:33;;;;;;;3.03;1.00;;;;;;;6.22;100.00;99389.47;5054214;28;20438;-67
2023/12/13 08:39:00;;;;;;;4.43;1.73;;;;;;;6.20;100.00;99386.31;5054463;28;20446;-67
2023/12/13 08:41:28;;;;;;;4.40;1.30;;;;;;;6.22;100.00;99392.16;5054495;28;20438;-67
2023/12/13 08:43:56;;;;;;;8.10;1.83;;;;;;;6.22;100.00;99389.47;5054469;28;20961;-67
2023/12/13 08:46:22;;;;;;;2.60;0.90;;;;;;;6.26;100.00;99393.16;5054458;28;20440;-68
2023/12/13 08:48:49;;;;;;;3.17;1.90;;;;;;;6.33;100.00;99390.06;5054221;28;20438;-68
2023/12/13 08:51:15;;;;;;;4.90;1.90;;;;;;;6.36;100.00;99386.75;5055155;28;20486;-68
2023/12/13 08:53:42;;;;;;;2.63;1.20;;;;;;;6.38;100.00;99387.28;5054688;28;20464;-68
2023/12/13 08:56:09;;;;;;;3.37;1.27;;;;;;;6.43;100.00;99389.06;5054469;28;20445;-68
2023/12/13 08:58:37;;;;;;;4.93;1.67;;;;;;;6.44;100.00;99393.31;5053891;28;20438;-68
2023/12/13 09:01:04;;;;;;;3.43;1.93;;;;;;;6.45;100.00;99394.91;5054421;28;20474;-69
2023/12/13 09:03:31;;;;;;;4.80;2.37;;;;;;;6.43;100.00;99397.13;5053929;28;20460;-68
2023/12/13 09:05:58;;;;;;;3.13;1.67;;;;;;;6.45;100.00;99394.91;5054255;28;20474;-68
2023/12/13 09:08:25;;;;;;;6.00;2.80;;;;;;;6.44;100.00;99393.31;5053938;28;20439;-68
2023/12/13 09:10:51;;;;;;;6.70;2.37;;;;;;;6.40;100.00;99386.97;5054004;28;20569;-68
2023/12/13 09:13:18;;;;;;;3.97;1.50;;;;;;;6.41;100.00;99397.41;5054236;28;20462;-68
2023/12/13 09:15:46;;;;;;;3.60;1.40;;;;;;;6.35;100.00;99401.31;5054096;28;20857;-69
2023/12/13 09:18:12;;;;;;;4.60;1.97;;;;;;;6.36;100.00;99397.53;5054168;28;20449;-68
2023/12/13 09:20:40;;;;;;;3.80;1.77;;;;;;;6.37;100.00;99407.16;5053468;28;20482;-68
2023/12/13 09:23:07;;;;;;;5.90;2.53;;;;;;;6.39;100.00;99407.69;5053547;28;20922;-68
2023/12/13 09:25:33;;;;;;;4.30;1.87;;;;;;;6.39;100.00;99412.25;5053658;28;20494;-68
2023/12/13 09:28:01;;;;;;;2.83;1.27;;;;;;;6.41;100.00;99410.06;5053792;28;20449;-68
2023/12/13 09:30:27;;;;;;;4.17;1.93;;;;;;;6.36;100.00;99419.03;5053695;28;20573;-68
2023/12/13 09:32:55;;;;;;;5.33;3.07;;;;;;;6.34;100.00;99412.38;5053670;28;20446;-68
2023/12/13 09:35:22;;;;;;;7.30;2.83;;;;;;;6.29;100.00;99411.38;5053244;28;20494;-68
2023/12/13 09:37:48;;;;;;;5.13;2.50;;;;;;;6.28;100.00;99407.09;5053699;28;20964;-68
2023/12/13 09:40:19;;;;;;;5.10;2.70;;;;;;;6.24;100.00;99414.19;5053677;28;20430;-68
2023/12/13 09:42:46;;;;;;;5.63;3.53;;;;;;;6.23;100.00;99415.25;5053929;28;20434;-68
2023/12/13 09:45:18;;;;;;;4.30;2.37;;;;;;;6.26;100.00;99420.03;5053421;28;20462;-68
2023/12/13 09:47:45;;;;;;;3.87;1.80;;;;;;;6.29;100.00;99424.03;5053910;28;20447;-68
2023/12/13 09:50:13;;;;;;;2.33;0.90;;;;;;;6.27;100.00;99420.84;5055947;28;21065;-68
2023/12/13 09:52:41;;;;;;;4.13;1.70;;;;;;;6.31;100.00;99414.56;5058026;28;20446;-68
2023/12/13 09:55:09;;;;;;;4.13;1.53;;;;;;;6.34;100.00;99415.06;5057794;28;20512;-68
2023/12/13 09:57:36;;;;;;;4.00;1.97;;;;;;;6.27;100.00;99416.25;5057461;28;20942;-68
2023/12/13 10:00:03;;;;;;;3.03;1.50;;;;;;;6.30;100.00;99412.97;5057151;28;20441;-68
2023/12/13 10:02:30;;;;;;;5.87;2.83;;;;;;;6.29;100.00;99411.38;5057627;28;20564;-68
2023/12/13 10:04:59;;;;;;;17.90;1.87;;;;;;;6.27;100.00;99418.94;5057368;28;20464;-68
2023/12/13 10:07:28;;;;;;;5.20;2.10;;;;;;;6.26;100.00;99413.88;5057748;28;20485;-69
2023/12/13 10:09:55;;;;;;;3.53;1.90;;;;;;;6.22;100.00;99413.69;5057235;28;20434;-68
2023/12/13 10:12:22;;;;;;;11.93;2.50;;;;;;;6.26;100.00;99409.28;5057704;28;20490;-68
2023/12/13 10:14:49;;;;;;;3.93;2.03;;;;;;;6.28;100.00;99407.09;5057308;28;20457;-68
2023/12/13 10:17:15;;;;;;;6.90;2.27;;;;;;;6.30;100.00;99412.97;5057639;28;20441;-68
2023/12/13 10:19:44;;;;;;;4.30;1.83;;;;;;;6.37;100.00;99411.75;5056787;28;20489;-68
2023/12/13 10:22:10;;;;;;;5.90;1.93;;;;;;;6.36;100.00;99407.47;5057069;28;20446;-68
2023/12/13 10:24:38;;;;;;;3.90;1.90;;;;;;;6.36;100.00;99404.78;5057162;28;20551;-68
2023/12/13 10:27:05;;;;;;;4.43;1.80;;;;;;;6.32;100.00;99408.06;5057059;28;20466;-68
2023/12/13 10:29:32;;;;;;;7.53;2.80;;;;;;;6.26;100.00;99397.75;5057364;28;20446;-68
2023/12/13 10:31:59;;;;;;;4.80;2.07;;;;;;;6.24;100.00;99406.13;5057193;28;20486;-68
2023/12/13 10:34:26;;;;;;;2.60;1.03;;;;;;;6.25;100.00;99405.00;5056849;28;20465;-68
2023/12/13 10:36:55;;;;;;;7.50;3.60;;;;;;;6.25;100.00;99407.72;5056931;28;20470;-68
2023/12/13 10:39:24;;;;;;;4.67;2.07;;;;;;;6.26;100.00;99401.22;5056780;28;20470;-68
2023/12/13 10:41:56;;;;;;;6.13;2.93;;;;;;;6.29;100.00;99399.84;5056643;28;20469;-68
2023/12/13 10:44:24;;;;;;;4.77;2.47;;;;;;;6.26;100.00;99403.91;5057089;28;20481;-68
2023/12/13 10:46:56;;;;;;;9.20;2.73;;;;;;;6.21;100.00;99400.53;5056629;28;20469;-68
2023/12/13 10:49:23;;;;;;;4.97;2.30;;;;;;;6.22;100.00;99413.69;5056622;28;20465;-68
2023/12/13 10:51:50;;;;;;;4.20;2.03;;;;;;;6.17;100.00;99396.88;5056195;28;21001;-68
2023/12/13 10:54:18;;;;;;;4.83;2.40;;;;;;;6.21;100.00;99395.16;5056567;28;20465;-68
2023/12/13 10:56:45;;;;;;;5.60;2.33;;;;;;;6.22;100.00;99392.16;5056550;28;20449;-68
2023/12/13 10:59:15;;;;;;;5.40;3.03;;;;;;;6.22;100.00;99397.53;5056471;28;20453;-68
2023/12/13 11:01:43;;;;;;;7.20;3.07;;;;;;;6.25;100.00;99391.56;5055970;28;20473;-68
2023/12/13 11:04:12;;;;;;;8.50;3.10;;;;;;;6.30;100.00;99402.22;5056039;28;20966;-68
2023/12/13 11:06:39;;;;;;;5.30;2.50;;;;;;;6.34;100.00;99396.25;5056050;28;20984;-68
2023/12/13 11:09:13;;;;;;;5.70;2.40;;;;;;;6.34;100.00;99390.88;5056261;28;20466;-68
2023/12/13 11:11:40;;;;;;;4.53;2.13;;;;;;;6.34;100.00;99404.31;5056484;28;20880;-68
2023/12/13 11:14:09;;;;;;;5.67;3.47;;;;;;;6.37;100.00;99396.41;5056317;28;20458;-68
2023/12/13 11:16:42;;;;;;;4.30;2.50;;;;;;;6.42;100.00;99395.50;5056533;28;20442;-68
2023/12/13 11:19:11;;;;;;;7.80;2.80;;;;;;;6.47;100.00;99400.78;5055911;28;20893;-68
2023/12/13 11:21:40;;;;;;;4.80;2.40;;;;;;;6.42;100.00;99403.56;5056009;28;20438;-68
2023/12/13 11:24:12;;;;;;;4.70;2.30;;;;;;;6.43;100.00;99407.88;5056323;28;20497;-68
2023/12/13 11:26:42;;;;;;;11.87;2.43;;;;;;;6.45;100.00;99411.03;5055964;28;20449;-68
2023/12/13 11:29:15;;;;;;;3.83;1.63;;;;;;;6.38;100.00;99411.47;5056379;28;20446;-68
2023/12/13 11:31:51;;;;;;;8.00;3.60;;;;;;;6.41;100.00;99415.44;5055892;28;20484;-68
2023/12/13 11:34:18;;;;;;;4.87;2.07;;;;;;;6.39;100.00;99412.25;5056194;28;20464;-68